This is the latest recevied weather packets stored in our database for station/object KC7KGF. If no packets are shown the sender has not sent any weather packets the latest 10 day(s).
| Time | Temp. | Humidity | Pressure | Rain* | Wind** | Luminosity | Snow |
|---|---|---|---|---|---|---|---|
| 1777163748 | 17.22° C | 30% | 1013.7 hPa | 0 mm | - | - | - |
| 1777161953 | 17.22° C | 29% | 1014 hPa | 0 mm | - | - | - |
| 1777160126 | 16.67° C | 28% | 1014.2 hPa | 0 mm | - | - | - |
| 1777158340 | 18.33° C | 24% | 1014.2 hPa | 0 mm | - | - | - |
| 1777156534 | 18.33° C | 25% | 1014.3 hPa | 0 mm | - | - | - |
| 1777154733 | 18.33° C | 26% | 1014.2 hPa | 0 mm | - | - | - |
| 1777152942 | 17.22° C | 27% | 1014.8 hPa | 0 mm | - | - | - |
| 1777151146 | 17.78° C | 21% | 1015 hPa | 0 mm | - | - | - |
| 1777149331 | 18.33° C | 27% | 1014.8 hPa | 0 mm | - | - | - |
| 1777147529 | 17.78° C | 29% | 1015 hPa | 0 mm | - | - | - |
| 1777145738 | 17.22° C | 28% | 1015.3 hPa | 0 mm | - | - | - |
| 1777143938 | 17.78° C | 27% | 1015.6 hPa | 0 mm | - | - | - |
| 1777142140 | 17.78° C | 28% | 1015.6 hPa | 0 mm | - | - | - |
| 1777140327 | 17.22° C | 28% | 1016.3 hPa | 0 mm | - | - | - |
| 1777138546 | 17.22° C | 31% | 1016.2 hPa | 0 mm | - | - | - |
| 1777136733 | 17.22° C | 31% | 1015.8 hPa | 0 mm | - | - | - |
| 1777134937 | 16.67° C | 32% | 1015.6 hPa | 0 mm | - | - | - |
| 1777133135 | 16.11° C | 33% | 1015.5 hPa | 0 mm | - | - | - |
| 1777131353 | 15.56° C | 34% | 1015.4 hPa | 0 mm | - | - | - |
| 1777129545 | 15° C | 37% | 1015.4 hPa | 0 mm | - | - | - |
| 1777127749 | 13.33° C | 41% | 1015.3 hPa | 0 mm | - | - | - |
| 1777125931 | 10° C | 48% | 1015.1 hPa | 0 mm | - | - | - |
| 1777124140 | 6.67° C | 58% | 1015 hPa | 0 mm | - | - | - |
| 1777122343 | 5.56° C | 56% | 1014.8 hPa | 0 mm | - | - | - |
| 1777120535 | 6.67° C | 52% | 1014.1 hPa | 0 mm | - | - | - |
* Rain latest hour (hover to see other rain measurements)
** Current wind speed in m/s (hover to see current wind gust speed)